sensor_id;sensor_type;location;lat;lon;timestamp;P1;durP1;ratioP1;P2;durP2;ratioP2
34960;SDS011;30789;52.030;7.110;2023-03-14T00:01:54;3.10;;;1.65;;
34960;SDS011;30789;52.030;7.110;2023-03-14T00:04:21;6.78;;;1.98;;
34960;SDS011;30789;52.030;7.110;2023-03-14T00:06:47;4.95;;;1.70;;
34960;SDS011;30789;52.030;7.110;2023-03-14T00:09:14;5.53;;;1.60;;
34960;SDS011;30789;52.030;7.110;2023-03-14T00:11:42;6.15;;;1.70;;
34960;SDS011;30789;52.030;7.110;2023-03-14T00:14:08;4.13;;;1.65;;
34960;SDS011;30789;52.030;7.110;2023-03-14T00:16:34;7.57;;;2.30;;
34960;SDS011;30789;52.030;7.110;2023-03-14T00:19:01;3.50;;;1.50;;
34960;SDS011;30789;52.030;7.110;2023-03-14T00:21:27;7.22;;;1.77;;
34960;SDS011;30789;52.030;7.110;2023-03-14T00:23:53;6.60;;;1.90;;
34960;SDS011;30789;52.030;7.110;2023-03-14T00:26:20;5.03;;;1.42;;
34960;SDS011;30789;52.030;7.110;2023-03-14T00:28:50;2.88;;;1.45;;
34960;SDS011;30789;52.030;7.110;2023-03-14T00:31:16;3.95;;;1.42;;
34960;SDS011;30789;52.030;7.110;2023-03-14T00:33:43;5.65;;;1.42;;
34960;SDS011;30789;52.030;7.110;2023-03-14T00:36:10;9.05;;;2.03;;
34960;SDS011;30789;52.030;7.110;2023-03-14T00:38:37;5.22;;;1.30;;
34960;SDS011;30789;52.030;7.110;2023-03-14T00:41:04;3.58;;;1.42;;
34960;SDS011;30789;52.030;7.110;2023-03-14T00:43:30;7.93;;;1.40;;
34960;SDS011;30789;52.030;7.110;2023-03-14T00:45:58;4.85;;;1.35;;
34960;SDS011;30789;52.030;7.110;2023-03-14T00:48:24;4.82;;;1.45;;
34960;SDS011;30789;52.030;7.110;2023-03-14T00:50:51;3.38;;;1.30;;
34960;SDS011;30789;52.030;7.110;2023-03-14T00:53:17;6.82;;;1.40;;
34960;SDS011;30789;52.030;7.110;2023-03-14T00:55:43;4.63;;;1.23;;
34960;SDS011;30789;52.030;7.110;2023-03-14T00:58:10;5.25;;;1.45;;
34960;SDS011;30789;52.030;7.110;2023-03-14T01:00:36;3.60;;;1.45;;
34960;SDS011;30789;52.030;7.110;2023-03-14T01:03:04;3.97;;;1.33;;
34960;SDS011;30789;52.030;7.110;2023-03-14T01:05:30;3.38;;;1.05;;
34960;SDS011;30789;52.030;7.110;2023-03-14T01:07:57;3.67;;;1.17;;
34960;SDS011;30789;52.030;7.110;2023-03-14T01:10:23;4.47;;;1.27;;
34960;SDS011;30789;52.030;7.110;2023-03-14T01:12:49;5.78;;;1.20;;
34960;SDS011;30789;52.030;7.110;2023-03-14T01:15:16;4.00;;;1.50;;
34960;SDS011;30789;52.030;7.110;2023-03-14T01:17:42;5.00;;;1.25;;
34960;SDS011;30789;52.030;7.110;2023-03-14T01:20:11;4.60;;;1.42;;
34960;SDS011;30789;52.030;7.110;2023-03-14T01:22:38;4.95;;;1.50;;
34960;SDS011;30789;52.030;7.110;2023-03-14T01:25:05;4.07;;;1.35;;
34960;SDS011;30789;52.030;7.110;2023-03-14T01:27:31;4.95;;;1.20;;
34960;SDS011;30789;52.030;7.110;2023-03-14T01:29:58;4.82;;;1.50;;
34960;SDS011;30789;52.030;7.110;2023-03-14T01:32:24;3.75;;;1.40;;
34960;SDS011;30789;52.030;7.110;2023-03-14T01:34:50;5.03;;;1.65;;
34960;SDS011;30789;52.030;7.110;2023-03-14T01:37:18;6.03;;;1.58;;
34960;SDS011;30789;52.030;7.110;2023-03-14T01:39:46;3.33;;;1.10;;
34960;SDS011;30789;52.030;7.110;2023-03-14T01:42:12;3.80;;;0.88;;
34960;SDS011;30789;52.030;7.110;2023-03-14T01:44:49;5.20;;;1.05;;
34960;SDS011;30789;52.030;7.110;2023-03-14T01:47:15;5.47;;;1.40;;
34960;SDS011;30789;52.030;7.110;2023-03-14T01:49:42;4.15;;;1.30;;
34960;SDS011;30789;52.030;7.110;2023-03-14T01:52:09;5.18;;;1.13;;
34960;SDS011;30789;52.030;7.110;2023-03-14T01:54:39;3.83;;;1.55;;
34960;SDS011;30789;52.030;7.110;2023-03-14T01:57:07;5.97;;;1.67;;
34960;SDS011;30789;52.030;7.110;2023-03-14T01:59:34;3.78;;;1.30;;
34960;SDS011;30789;52.030;7.110;2023-03-14T02:02:01;1.92;;;1.08;;
34960;SDS011;30789;52.030;7.110;2023-03-14T02:04:28;5.68;;;1.33;;
34960;SDS011;30789;52.030;7.110;2023-03-14T02:07:00;2.13;;;1.15;;
34960;SDS011;30789;52.030;7.110;2023-03-14T02:09:29;5.18;;;1.42;;
34960;SDS011;30789;52.030;7.110;2023-03-14T02:11:57;3.25;;;1.27;;
34960;SDS011;30789;52.030;7.110;2023-03-14T02:14:29;5.90;;;1.48;;
34960;SDS011;30789;52.030;7.110;2023-03-14T02:16:56;5.78;;;1.55;;
34960;SDS011;30789;52.030;7.110;2023-03-14T02:19:25;6.05;;;1.65;;
34960;SDS011;30789;52.030;7.110;2023-03-14T02:21:53;5.65;;;1.40;;
34960;SDS011;30789;52.030;7.110;2023-03-14T02:24:22;4.00;;;1.10;;
34960;SDS011;30789;52.030;7.110;2023-03-14T02:27:02;6.40;;;1.23;;
34960;SDS011;30789;52.030;7.110;2023-03-14T02:29:28;7.10;;;1.45;;
34960;SDS011;30789;52.030;7.110;2023-03-14T02:31:55;5.72;;;1.00;;
34960;SDS011;30789;52.030;7.110;2023-03-14T02:34:21;2.53;;;1.10;;
34960;SDS011;30789;52.030;7.110;2023-03-14T02:36:48;5.15;;;1.27;;
34960;SDS011;30789;52.030;7.110;2023-03-14T02:39:15;3.60;;;0.95;;
34960;SDS011;30789;52.030;7.110;2023-03-14T02:41:45;4.60;;;1.25;;
34960;SDS011;30789;52.030;7.110;2023-03-14T02:44:15;3.63;;;1.02;;
34960;SDS011;30789;52.030;7.110;2023-03-14T02:46:41;8.13;;;1.13;;
34960;SDS011;30789;52.030;7.110;2023-03-14T02:49:08;6.22;;;1.00;;
34960;SDS011;30789;52.030;7.110;2023-03-14T02:51:36;3.30;;;0.98;;
34960;SDS011;30789;52.030;7.110;2023-03-14T02:54:03;5.90;;;1.17;;
34960;SDS011;30789;52.030;7.110;2023-03-14T02:56:29;6.15;;;1.17;;
34960;SDS011;30789;52.030;7.110;2023-03-14T02:58:55;4.22;;;1.27;;
34960;SDS011;30789;52.030;7.110;2023-03-14T03:01:24;4.00;;;1.08;;
34960;SDS011;30789;52.030;7.110;2023-03-14T03:03:50;6.00;;;1.02;;
34960;SDS011;30789;52.030;7.110;2023-03-14T03:06:16;5.97;;;0.93;;
34960;SDS011;30789;52.030;7.110;2023-03-14T03:08:42;2.53;;;0.88;;
34960;SDS011;30789;52.030;7.110;2023-03-14T03:11:09;6.25;;;0.98;;
34960;SDS011;30789;52.030;7.110;2023-03-14T03:13:35;4.38;;;1.00;;
34960;SDS011;30789;52.030;7.110;2023-03-14T03:16:01;4.60;;;1.08;;
34960;SDS011;30789;52.030;7.110;2023-03-14T03:18:29;3.85;;;0.88;;
34960;SDS011;30789;52.030;7.110;2023-03-14T03:20:59;2.38;;;0.50;;
34960;SDS011;30789;52.030;7.110;2023-03-14T03:23:25;1.95;;;0.80;;
34960;SDS011;30789;52.030;7.110;2023-03-14T03:25:51;4.07;;;0.98;;
34960;SDS011;30789;52.030;7.110;2023-03-14T03:28:17;5.15;;;1.20;;
34960;SDS011;30789;52.030;7.110;2023-03-14T03:30:44;3.50;;;1.23;;
34960;SDS011;30789;52.030;7.110;2023-03-14T03:33:10;3.80;;;1.00;;
34960;SDS011;30789;52.030;7.110;2023-03-14T03:35:42;6.30;;;1.10;;
34960;SDS011;30789;52.030;7.110;2023-03-14T03:38:09;6.15;;;1.00;;
34960;SDS011;30789;52.030;7.110;2023-03-14T03:40:36;3.22;;;0.90;;
34960;SDS011;30789;52.030;7.110;2023-03-14T03:43:02;2.55;;;0.75;;
34960;SDS011;30789;52.030;7.110;2023-03-14T03:45:29;6.13;;;1.05;;
34960;SDS011;30789;52.030;7.110;2023-03-14T03:47:56;7.47;;;0.93;;
34960;SDS011;30789;52.030;7.110;2023-03-14T03:50:22;3.50;;;0.80;;
34960;SDS011;30789;52.030;7.110;2023-03-14T03:52:49;5.30;;;1.17;;
34960;SDS011;30789;52.030;7.110;2023-03-14T03:55:16;2.88;;;0.80;;
34960;SDS011;30789;52.030;7.110;2023-03-14T03:57:42;4.63;;;1.13;;
34960;SDS011;30789;52.030;7.110;2023-03-14T04:00:09;5.97;;;1.30;;
34960;SDS011;30789;52.030;7.110;2023-03-14T04:02:37;4.55;;;1.23;;
34960;SDS011;30789;52.030;7.110;2023-03-14T04:05:03;6.68;;;1.35;;
34960;SDS011;30789;52.030;7.110;2023-03-14T04:07:31;5.47;;;0.90;;
34960;SDS011;30789;52.030;7.110;2023-03-14T04:09:58;5.28;;;1.02;;
34960;SDS011;30789;52.030;7.110;2023-03-14T04:12:24;5.97;;;1.50;;
34960;SDS011;30789;52.030;7.110;2023-03-14T04:14:51;3.90;;;0.70;;
34960;SDS011;30789;52.030;7.110;2023-03-14T04:17:17;3.17;;;0.77;;
34960;SDS011;30789;52.030;7.110;2023-03-14T04:19:43;2.85;;;0.60;;
34960;SDS011;30789;52.030;7.110;2023-03-14T04:22:09;5.68;;;0.77;;
34960;SDS011;30789;52.030;7.110;2023-03-14T04:24:36;5.60;;;1.40;;
34960;SDS011;30789;52.030;7.110;2023-03-14T04:27:03;5.72;;;0.98;;
34960;SDS011;30789;52.030;7.110;2023-03-14T04:29:30;3.60;;;1.13;;
34960;SDS011;30789;52.030;7.110;2023-03-14T04:31:56;8.75;;;1.15;;
34960;SDS011;30789;52.030;7.110;2023-03-14T04:34:22;6.63;;;1.40;;
34960;SDS011;30789;52.030;7.110;2023-03-14T04:36:48;8.77;;;1.10;;
34960;SDS011;30789;52.030;7.110;2023-03-14T04:39:15;5.32;;;0.98;;
34960;SDS011;30789;52.030;7.110;2023-03-14T04:41:41;6.45;;;1.15;;
34960;SDS011;30789;52.030;7.110;2023-03-14T04:44:08;8.00;;;1.17;;
34960;SDS011;30789;52.030;7.110;2023-03-14T04:46:35;5.85;;;1.20;;
34960;SDS011;30789;52.030;7.110;2023-03-14T04:49:01;3.92;;;1.02;;
34960;SDS011;30789;52.030;7.110;2023-03-14T04:51:27;5.72;;;1.25;;
34960;SDS011;30789;52.030;7.110;2023-03-14T04:53:53;7.30;;;1.33;;
34960;SDS011;30789;52.030;7.110;2023-03-14T04:56:20;4.13;;;1.40;;
34960;SDS011;30789;52.030;7.110;2023-03-14T04:58:46;7.03;;;1.50;;
34960;SDS011;30789;52.030;7.110;2023-03-14T05:01:14;3.67;;;1.08;;
34960;SDS011;30789;52.030;7.110;2023-03-14T05:03:40;4.63;;;1.02;;
34960;SDS011;30789;52.030;7.110;2023-03-14T05:06:07;3.47;;;0.90;;
34960;SDS011;30789;52.030;7.110;2023-03-14T05:08:33;6.95;;;1.10;;
34960;SDS011;30789;52.030;7.110;2023-03-14T05:10:59;8.18;;;1.30;;
34960;SDS011;30789;52.030;7.110;2023-03-14T05:13:25;5.63;;;0.93;;
34960;SDS011;30789;52.030;7.110;2023-03-14T05:15:52;7.85;;;1.38;;
34960;SDS011;30789;52.030;7.110;2023-03-14T05:18:20;5.03;;;1.15;;
34960;SDS011;30789;52.030;7.110;2023-03-14T05:20:46;6.68;;;1.25;;
34960;SDS011;30789;52.030;7.110;2023-03-14T05:23:12;6.78;;;1.17;;
34960;SDS011;30789;52.030;7.110;2023-03-14T05:25:38;6.68;;;1.20;;
34960;SDS011;30789;52.030;7.110;2023-03-14T05:28:05;4.22;;;0.80;;
34960;SDS011;30789;52.030;7.110;2023-03-14T05:30:31;3.83;;;0.85;;
34960;SDS011;30789;52.030;7.110;2023-03-14T05:32:58;5.35;;;0.82;;
34960;SDS011;30789;52.030;7.110;2023-03-14T05:35:26;4.85;;;1.13;;
34960;SDS011;30789;52.030;7.110;2023-03-14T05:37:52;7.03;;;1.52;;
34960;SDS011;30789;52.030;7.110;2023-03-14T05:40:18;3.50;;;1.00;;
34960;SDS011;30789;52.030;7.110;2023-03-14T05:42:45;4.40;;;1.20;;
34960;SDS011;30789;52.030;7.110;2023-03-14T05:45:11;5.63;;;1.10;;
34960;SDS011;30789;52.030;7.110;2023-03-14T05:47:37;5.45;;;1.35;;
34960;SDS011;30789;52.030;7.110;2023-03-14T05:50:04;3.88;;;1.08;;
34960;SDS011;30789;52.030;7.110;2023-03-14T05:52:32;7.75;;;1.38;;
34960;SDS011;30789;52.030;7.110;2023-03-14T05:54:58;5.88;;;1.02;;
34960;SDS011;30789;52.030;7.110;2023-03-14T05:57:24;3.22;;;0.90;;
34960;SDS011;30789;52.030;7.110;2023-03-14T05:59:51;4.82;;;0.80;;
34960;SDS011;30789;52.030;7.110;2023-03-14T06:02:17;4.22;;;1.00;;
34960;SDS011;30789;52.030;7.110;2023-03-14T06:04:43;4.57;;;0.90;;
34960;SDS011;30789;52.030;7.110;2023-03-14T06:07:09;5.88;;;0.80;;
34960;SDS011;30789;52.030;7.110;2023-03-14T06:09:37;2.58;;;0.93;;
34960;SDS011;30789;52.030;7.110;2023-03-14T06:12:04;3.50;;;0.75;;
34960;SDS011;30789;52.030;7.110;2023-03-14T06:14:31;3.30;;;0.50;;
34960;SDS011;30789;52.030;7.110;2023-03-14T06:16:57;4.20;;;0.90;;
34960;SDS011;30789;52.030;7.110;2023-03-14T06:19:24;0.50;;;0.50;;
34960;SDS011;30789;52.030;7.110;2023-03-14T06:21:50;4.82;;;0.65;;
34960;SDS011;30789;52.030;7.110;2023-03-14T06:24:16;1.85;;;0.60;;
34960;SDS011;30789;52.030;7.110;2023-03-14T06:26:44;2.38;;;0.98;;
34960;SDS011;30789;52.030;7.110;2023-03-14T06:29:10;2.53;;;1.02;;
34960;SDS011;30789;52.030;7.110;2023-03-14T06:31:38;2.40;;;0.73;;
34960;SDS011;30789;52.030;7.110;2023-03-14T06:34:04;4.80;;;1.08;;
34960;SDS011;30789;52.030;7.110;2023-03-14T06:36:31;2.22;;;0.90;;
34960;SDS011;30789;52.030;7.110;2023-03-14T06:38:57;3.47;;;0.98;;
34960;SDS011;30789;52.030;7.110;2023-03-14T06:41:23;2.35;;;1.48;;
34960;SDS011;30789;52.030;7.110;2023-03-14T06:43:52;2.03;;;1.13;;
34960;SDS011;30789;52.030;7.110;2023-03-14T06:46:18;4.18;;;1.70;;
34960;SDS011;30789;52.030;7.110;2023-03-14T06:48:44;1.98;;;1.67;;
34960;SDS011;30789;52.030;7.110;2023-03-14T06:51:11;2.97;;;1.80;;
34960;SDS011;30789;52.030;7.110;2023-03-14T06:53:37;2.55;;;1.30;;
34960;SDS011;30789;52.030;7.110;2023-03-14T06:56:04;3.75;;;1.58;;
34960;SDS011;30789;52.030;7.110;2023-03-14T06:58:30;1.90;;;1.50;;
34960;SDS011;30789;52.030;7.110;2023-03-14T07:00:58;7.40;;;2.28;;
34960;SDS011;30789;52.030;7.110;2023-03-14T07:03:24;3.35;;;1.88;;
34960;SDS011;30789;52.030;7.110;2023-03-14T07:05:51;3.80;;;2.00;;
34960;SDS011;30789;52.030;7.110;2023-03-14T07:08:17;3.72;;;2.45;;
34960;SDS011;30789;52.030;7.110;2023-03-14T07:10:43;3.17;;;2.22;;
34960;SDS011;30789;52.030;7.110;2023-03-14T07:13:09;4.25;;;2.55;;
34960;SDS011;30789;52.030;7.110;2023-03-14T07:15:36;3.20;;;2.20;;
34960;SDS011;30789;52.030;7.110;2023-03-14T07:18:03;4.28;;;2.70;;
34960;SDS011;30789;52.030;7.110;2023-03-14T07:20:30;3.42;;;2.38;;
34960;SDS011;30789;52.030;7.110;2023-03-14T07:22:57;3.55;;;2.38;;
34960;SDS011;30789;52.030;7.110;2023-03-14T07:25:24;4.07;;;2.65;;
34960;SDS011;30789;52.030;7.110;2023-03-14T07:27:51;5.55;;;2.72;;
34960;SDS011;30789;52.030;7.110;2023-03-14T07:30:17;7.25;;;2.47;;
34960;SDS011;30789;52.030;7.110;2023-03-14T07:32:43;4.07;;;2.67;;
34960;SDS011;30789;52.030;7.110;2023-03-14T07:35:11;3.30;;;2.80;;
34960;SDS011;30789;52.030;7.110;2023-03-14T07:37:37;4.63;;;3.00;;
34960;SDS011;30789;52.030;7.110;2023-03-14T07:40:04;2.58;;;2.38;;
34960;SDS011;30789;52.030;7.110;2023-03-14T07:42:32;5.65;;;3.13;;
34960;SDS011;30789;52.030;7.110;2023-03-14T07:44:58;3.72;;;3.03;;
34960;SDS011;30789;52.030;7.110;2023-03-14T07:47:24;6.07;;;3.85;;
34960;SDS011;30789;52.030;7.110;2023-03-14T07:49:50;5.68;;;3.22;;
34960;SDS011;30789;52.030;7.110;2023-03-14T07:52:18;4.47;;;3.45;;
34960;SDS011;30789;52.030;7.110;2023-03-14T07:54:44;5.18;;;3.15;;
34960;SDS011;30789;52.030;7.110;2023-03-14T07:57:10;4.47;;;3.28;;
34960;SDS011;30789;52.030;7.110;2023-03-14T07:59:37;5.20;;;3.22;;
34960;SDS011;30789;52.030;7.110;2023-03-14T08:02:03;5.03;;;3.10;;
34960;SDS011;30789;52.030;7.110;2023-03-14T08:04:30;4.10;;;3.17;;
34960;SDS011;30789;52.030;7.110;2023-03-14T08:06:56;5.35;;;2.78;;
34960;SDS011;30789;52.030;7.110;2023-03-14T08:09:24;3.38;;;2.45;;
34960;SDS011;30789;52.030;7.110;2023-03-14T08:11:50;2.53;;;2.33;;
34960;SDS011;30789;52.030;7.110;2023-03-14T08:14:17;3.53;;;2.35;;
34960;SDS011;30789;52.030;7.110;2023-03-14T08:16:43;2.45;;;2.25;;
34960;SDS011;30789;52.030;7.110;2023-03-14T08:19:09;5.13;;;2.40;;
34960;SDS011;30789;52.030;7.110;2023-03-14T08:21:36;3.45;;;2.10;;
34960;SDS011;30789;52.030;7.110;2023-03-14T08:24:02;2.42;;;1.90;;
34960;SDS011;30789;52.030;7.110;2023-03-14T08:26:30;2.75;;;1.98;;
34960;SDS011;30789;52.030;7.110;2023-03-14T08:28:56;2.60;;;2.00;;
34960;SDS011;30789;52.030;7.110;2023-03-14T08:31:22;7.25;;;1.85;;
34960;SDS011;30789;52.030;7.110;2023-03-14T08:33:48;2.95;;;2.10;;
34960;SDS011;30789;52.030;7.110;2023-03-14T08:36:17;2.97;;;1.80;;
34960;SDS011;30789;52.030;7.110;2023-03-14T08:38:43;2.22;;;1.83;;
34960;SDS011;30789;52.030;7.110;2023-03-14T08:41:10;3.15;;;2.10;;
34960;SDS011;30789;52.030;7.110;2023-03-14T08:43:37;2.83;;;2.10;;
34960;SDS011;30789;52.030;7.110;2023-03-14T08:46:04;2.33;;;1.77;;
34960;SDS011;30789;52.030;7.110;2023-03-14T08:48:30;3.17;;;2.53;;
34960;SDS011;30789;52.030;7.110;2023-03-14T08:50:57;6.15;;;2.03;;
34960;SDS011;30789;52.030;7.110;2023-03-14T08:53:27;4.18;;;1.98;;
34960;SDS011;30789;52.030;7.110;2023-03-14T08:55:53;2.28;;;1.85;;
34960;SDS011;30789;52.030;7.110;2023-03-14T08:58:19;3.65;;;2.03;;
34960;SDS011;30789;52.030;7.110;2023-03-14T09:00:49;3.60;;;1.95;;
34960;SDS011;30789;52.030;7.110;2023-03-14T09:03:15;2.13;;;0.93;;
34960;SDS011;30789;52.030;7.110;2023-03-14T09:05:41;1.58;;;0.75;;
34960;SDS011;30789;52.030;7.110;2023-03-14T09:08:07;3.88;;;0.90;;
34960;SDS011;30789;52.030;7.110;2023-03-14T09:10:34;0.50;;;0.50;;
34960;SDS011;30789;52.030;7.110;2023-03-14T09:13:00;0.85;;;0.40;;
34960;SDS011;30789;52.030;7.110;2023-03-14T09:15:26;2.50;;;0.40;;
34960;SDS011;30789;52.030;7.110;2023-03-14T09:17:54;0.73;;;0.30;;
34960;SDS011;30789;52.030;7.110;2023-03-14T09:20:20;0.65;;;0.20;;
34960;SDS011;30789;52.030;7.110;2023-03-14T09:22:46;0.20;;;0.20;;
34960;SDS011;30789;52.030;7.110;2023-03-14T09:25:13;0.82;;;0.45;;
34960;SDS011;30789;52.030;7.110;2023-03-14T09:27:39;0.80;;;0.68;;
34960;SDS011;30789;52.030;7.110;2023-03-14T09:30:05;0.98;;;0.63;;
34960;SDS011;30789;52.030;7.110;2023-03-14T09:32:32;0.57;;;0.47;;
34960;SDS011;30789;52.030;7.110;2023-03-14T09:34:59;1.20;;;0.55;;
34960;SDS011;30789;52.030;7.110;2023-03-14T09:37:26;0.50;;;0.47;;
34960;SDS011;30789;52.030;7.110;2023-03-14T09:39:52;1.88;;;0.93;;
34960;SDS011;30789;52.030;7.110;2023-03-14T09:42:19;2.42;;;1.63;;
34960;SDS011;30789;52.030;7.110;2023-03-14T09:44:50;2.85;;;0.68;;
34960;SDS011;30789;52.030;7.110;2023-03-14T09:47:17;0.50;;;0.30;;
34960;SDS011;30789;52.030;7.110;2023-03-14T09:49:44;1.40;;;0.52;;
34960;SDS011;30789;52.030;7.110;2023-03-14T09:52:12;0.95;;;0.47;;
34960;SDS011;30789;52.030;7.110;2023-03-14T09:54:41;0.38;;;0.32;;
34960;SDS011;30789;52.030;7.110;2023-03-14T09:57:10;0.20;;;0.20;;
34960;SDS011;30789;52.030;7.110;2023-03-14T09:59:37;2.85;;;0.30;;
34960;SDS011;30789;52.030;7.110;2023-03-14T10:02:11;0.35;;;0.30;;
34960;SDS011;30789;52.030;7.110;2023-03-14T10:04:38;0.60;;;0.40;;
34960;SDS011;30789;52.030;7.110;2023-03-14T10:07:09;2.30;;;0.30;;
34960;SDS011;30789;52.030;7.110;2023-03-14T10:09:39;0.85;;;0.32;;
34960;SDS011;30789;52.030;7.110;2023-03-14T10:12:07;1.73;;;0.43;;
34960;SDS011;30789;52.030;7.110;2023-03-14T10:14:35;0.88;;;0.40;;
34960;SDS011;30789;52.030;7.110;2023-03-14T10:17:06;0.98;;;0.30;;
34960;SDS011;30789;52.030;7.110;2023-03-14T10:19:33;0.30;;;0.30;;
34960;SDS011;30789;52.030;7.110;2023-03-14T10:22:01;0.40;;;0.40;;
34960;SDS011;30789;52.030;7.110;2023-03-14T10:24:28;3.30;;;0.40;;
34960;SDS011;30789;52.030;7.110;2023-03-14T10:26:57;1.60;;;0.40;;
34960;SDS011;30789;52.030;7.110;2023-03-14T10:29:26;0.40;;;0.20;;
34960;SDS011;30789;52.030;7.110;2023-03-14T10:31:54;3.20;;;0.38;;
34960;SDS011;30789;52.030;7.110;2023-03-14T10:34:21;1.10;;;0.52;;
34960;SDS011;30789;52.030;7.110;2023-03-14T10:36:51;1.45;;;0.95;;
34960;SDS011;30789;52.030;7.110;2023-03-14T10:39:22;2.10;;;0.70;;
34960;SDS011;30789;52.030;7.110;2023-03-14T10:41:50;1.67;;;0.77;;
34960;SDS011;30789;52.030;7.110;2023-03-14T10:44:20;3.25;;;0.85;;
34960;SDS011;30789;52.030;7.110;2023-03-14T10:46:54;14.00;;;6.28;;
34960;SDS011;30789;52.030;7.110;2023-03-14T10:49:26;20.45;;;9.13;;
34960;SDS011;30789;52.030;7.110;2023-03-14T10:51:52;8.52;;;4.15;;
34960;SDS011;30789;52.030;7.110;2023-03-14T10:54:19;2.65;;;1.42;;
34960;SDS011;30789;52.030;7.110;2023-03-14T10:56:47;4.30;;;1.80;;
34960;SDS011;30789;52.030;7.110;2023-03-14T10:59:22;7.13;;;1.30;;
34960;SDS011;30789;52.030;7.110;2023-03-14T11:01:51;1.35;;;0.60;;
34960;SDS011;30789;52.030;7.110;2023-03-14T11:04:24;1.10;;;1.00;;
34960;SDS011;30789;52.030;7.110;2023-03-14T11:06:53;4.60;;;1.07;;
34960;SDS011;30789;52.030;7.110;2023-03-14T11:09:23;2.95;;;0.68;;
34960;SDS011;30789;52.030;7.110;2023-03-14T11:11:50;0.88;;;0.50;;
34960;SDS011;30789;52.030;7.110;2023-03-14T11:14:19;6.20;;;0.90;;
34960;SDS011;30789;52.030;7.110;2023-03-14T11:16:52;3.35;;;0.52;;
34960;SDS011;30789;52.030;7.110;2023-03-14T11:21:46;2.58;;;1.15;;
34960;SDS011;30789;52.030;7.110;2023-03-14T11:24:21;3.25;;;1.20;;
34960;SDS011;30789;52.030;7.110;2023-03-14T11:26:54;3.20;;;0.60;;
34960;SDS011;30789;52.030;7.110;2023-03-14T11:29:23;8.00;;;1.10;;
34960;SDS011;30789;52.030;7.110;2023-03-14T11:31:55;3.38;;;0.80;;
34960;SDS011;30789;52.030;7.110;2023-03-14T11:34:22;5.50;;;1.10;;
34960;SDS011;30789;52.030;7.110;2023-03-14T11:36:51;1.98;;;1.10;;
34960;SDS011;30789;52.030;7.110;2023-03-14T11:39:18;6.93;;;1.20;;
34960;SDS011;30789;52.030;7.110;2023-03-14T11:41:45;2.05;;;0.77;;
34960;SDS011;30789;52.030;7.110;2023-03-14T11:44:14;6.28;;;1.13;;
34960;SDS011;30789;52.030;7.110;2023-03-14T11:46:45;4.18;;;1.15;;
34960;SDS011;30789;52.030;7.110;2023-03-14T11:49:15;7.47;;;1.10;;
34960;SDS011;30789;52.030;7.110;2023-03-14T11:51:43;4.63;;;1.15;;
34960;SDS011;30789;52.030;7.110;2023-03-14T11:54:14;10.30;;;2.10;;
34960;SDS011;30789;52.030;7.110;2023-03-14T11:56:43;5.63;;;1.00;;
34960;SDS011;30789;52.030;7.110;2023-03-14T11:59:14;5.63;;;1.20;;
34960;SDS011;30789;52.030;7.110;2023-03-14T12:01:47;6.32;;;0.80;;
34960;SDS011;30789;52.030;7.110;2023-03-14T12:04:18;7.28;;;1.52;;
34960;SDS011;30789;52.030;7.110;2023-03-14T12:06:47;12.50;;;1.75;;
34960;SDS011;30789;52.030;7.110;2023-03-14T12:09:14;4.75;;;1.60;;
34960;SDS011;30789;52.030;7.110;2023-03-14T12:11:42;3.72;;;1.42;;
34960;SDS011;30789;52.030;7.110;2023-03-14T12:14:18;11.75;;;1.33;;
34960;SDS011;30789;52.030;7.110;2023-03-14T12:16:45;15.63;;;1.98;;
34960;SDS011;30789;52.030;7.110;2023-03-14T12:19:13;8.13;;;1.65;;
34960;SDS011;30789;52.030;7.110;2023-03-14T12:21:46;12.20;;;1.98;;
34960;SDS011;30789;52.030;7.110;2023-03-14T12:24:16;11.98;;;1.45;;
34960;SDS011;30789;52.030;7.110;2023-03-14T12:26:44;7.73;;;1.73;;
34960;SDS011;30789;52.030;7.110;2023-03-14T12:29:15;11.20;;;1.98;;
34960;SDS011;30789;52.030;7.110;2023-03-14T12:31:43;6.65;;;2.00;;
34960;SDS011;30789;52.030;7.110;2023-03-14T12:34:26;8.00;;;1.70;;
34960;SDS011;30789;52.030;7.110;2023-03-14T12:37:01;13.00;;;2.17;;
34960;SDS011;30789;52.030;7.110;2023-03-14T12:39:35;12.25;;;2.55;;
34960;SDS011;30789;52.030;7.110;2023-03-14T12:42:03;13.15;;;2.22;;
34960;SDS011;30789;52.030;7.110;2023-03-14T12:44:40;8.80;;;2.08;;
34960;SDS011;30789;52.030;7.110;2023-03-14T12:50:07;12.63;;;1.95;;
34960;SDS011;30789;52.030;7.110;2023-03-14T12:52:36;9.02;;;1.90;;
34960;SDS011;30789;52.030;7.110;2023-03-14T12:55:06;9.68;;;1.80;;
34960;SDS011;30789;52.030;7.110;2023-03-14T12:57:35;6.55;;;1.67;;
34960;SDS011;30789;52.030;7.110;2023-03-14T13:00:03;8.85;;;2.47;;
34960;SDS011;30789;52.030;7.110;2023-03-14T13:02:37;8.05;;;1.92;;
34960;SDS011;30789;52.030;7.110;2023-03-14T13:05:05;6.88;;;1.67;;
34960;SDS011;30789;52.030;7.110;2023-03-14T13:08:01;10.00;;;1.45;;
34960;SDS011;30789;52.030;7.110;2023-03-14T13:10:24;8.43;;;1.85;;
34960;SDS011;30789;52.030;7.110;2023-03-14T13:12:51;8.80;;;1.75;;
34960;SDS011;30789;52.030;7.110;2023-03-14T13:15:21;8.32;;;1.20;;
34960;SDS011;30789;52.030;7.110;2023-03-14T13:17:48;12.82;;;1.48;;
34960;SDS011;30789;52.030;7.110;2023-03-14T13:20:16;8.15;;;2.28;;
34960;SDS011;30789;52.030;7.110;2023-03-14T13:22:47;9.18;;;1.52;;
34960;SDS011;30789;52.030;7.110;2023-03-14T13:25:13;7.55;;;1.40;;
34960;SDS011;30789;52.030;7.110;2023-03-14T13:27:41;10.63;;;1.48;;
34960;SDS011;30789;52.030;7.110;2023-03-14T13:30:15;8.07;;;1.40;;
34960;SDS011;30789;52.030;7.110;2023-03-14T13:32:42;5.70;;;1.38;;
34960;SDS011;30789;52.030;7.110;2023-03-14T13:35:14;4.85;;;1.35;;
34960;SDS011;30789;52.030;7.110;2023-03-14T13:37:40;6.40;;;1.38;;
34960;SDS011;30789;52.030;7.110;2023-03-14T13:40:18;8.32;;;1.35;;
34960;SDS011;30789;52.030;7.110;2023-03-14T13:42:45;8.88;;;1.38;;
34960;SDS011;30789;52.030;7.110;2023-03-14T13:45:12;7.10;;;1.58;;
34960;SDS011;30789;52.030;7.110;2023-03-14T13:47:39;6.18;;;1.50;;
34960;SDS011;30789;52.030;7.110;2023-03-14T13:50:11;8.13;;;1.20;;
34960;SDS011;30789;52.030;7.110;2023-03-14T13:52:38;6.10;;;1.00;;
34960;SDS011;30789;52.030;7.110;2023-03-14T13:55:05;4.63;;;1.05;;
34960;SDS011;30789;52.030;7.110;2023-03-14T13:57:43;2.90;;;1.25;;
34960;SDS011;30789;52.030;7.110;2023-03-14T14:00:17;3.75;;;1.17;;
34960;SDS011;30789;52.030;7.110;2023-03-14T14:02:43;5.70;;;1.17;;
34960;SDS011;30789;52.030;7.110;2023-03-14T14:05:10;3.22;;;1.17;;
34960;SDS011;30789;52.030;7.110;2023-03-14T14:07:36;7.93;;;2.72;;
34960;SDS011;30789;52.030;7.110;2023-03-14T14:10:03;7.60;;;3.20;;
34960;SDS011;30789;52.030;7.110;2023-03-14T14:12:30;4.85;;;2.00;;
34960;SDS011;30789;52.030;7.110;2023-03-14T14:15:00;7.97;;;1.67;;
34960;SDS011;30789;52.030;7.110;2023-03-14T14:17:28;7.65;;;1.08;;
34960;SDS011;30789;52.030;7.110;2023-03-14T14:19:56;2.70;;;0.88;;
34960;SDS011;30789;52.030;7.110;2023-03-14T14:22:23;6.40;;;1.20;;
34960;SDS011;30789;52.030;7.110;2023-03-14T14:24:49;2.85;;;0.77;;
34960;SDS011;30789;52.030;7.110;2023-03-14T14:27:17;4.97;;;1.35;;
34960;SDS011;30789;52.030;7.110;2023-03-14T14:29:55;2.17;;;0.93;;
34960;SDS011;30789;52.030;7.110;2023-03-14T14:32:23;3.60;;;0.93;;
34960;SDS011;30789;52.030;7.110;2023-03-14T14:34:56;3.15;;;0.75;;
34960;SDS011;30789;52.030;7.110;2023-03-14T14:37:23;4.07;;;0.93;;
34960;SDS011;30789;52.030;7.110;2023-03-14T14:39:50;3.25;;;0.80;;
34960;SDS011;30789;52.030;7.110;2023-03-14T14:42:19;3.47;;;1.17;;
34960;SDS011;30789;52.030;7.110;2023-03-14T14:44:47;2.03;;;0.80;;
34960;SDS011;30789;52.030;7.110;2023-03-14T14:47:14;3.10;;;0.82;;
34960;SDS011;30789;52.030;7.110;2023-03-14T14:49:44;5.80;;;0.55;;
34960;SDS011;30789;52.030;7.110;2023-03-14T14:52:13;3.70;;;1.00;;
34960;SDS011;30789;52.030;7.110;2023-03-14T14:54:42;4.15;;;0.95;;
34960;SDS011;30789;52.030;7.110;2023-03-14T14:57:13;4.07;;;0.77;;